Meath Environmental Platform

Observations for Trim Market St

Time AQI Temp °C Hum % Pres Pa CO μg/m³ H₂S μg/m³ NO μg/m³ NO₂ μg/m³ O₃ μg/m³ SO₂ μg/m³ PM1 μg/m³ PM2.5 μg/m³ PM10 μg/m³
Saturday 15 August 2026
17:00 3 29.9 29 66,072 0.65 13.57 0.9 20.51 76.39 0 1.43 4.42 4.87
16:59 3 30 29 66,084 0 6.06 0.76 16.71 90.61 0 0.71 3.89 4.28
16:58 3 30.1 29 66,098 0 5.63 0.68 16.89 70.71 0 0 2.8 3.09
16:54 2 30.4 28 66,109 0 3.54 0.67 15.96 80.38 0 0.71 3.38 3.72
16:50 2 30.9 28 66,167 0 0 0.75 14.12 74.54 0 0.71 3.95 4.35
16:48 2 31.1 28 66,165 0 4.81 0.63 17.21 77.39 0 0 2.87 3.16
16:45 2 31.4 27 66,184 0 0 0.59 13.69 89.22 0 0 3.43 3.77
16:44 2 31.5 27 66,184 0 0 0.57 14.21 88.34 0 0.71 4.52 4.97
16:36 2 32.3 27 66,276 0 0 0.47 13.77 90.36 0 0 2.9 3.19
16:35 2 32.3 27 66,262 0 0 0.45 13.29 96.74 0 0 2.91 3.2
16:34 2 32.3 26 66,274 0 0 0.47 13.34 120.63 0 0 3.46 3.81
16:33 2 32.4 26 66,290 0 0 0.56 12.07 96.42 0 0 2.94 3.23
16:32 2 32.6 26 66,311 0 0 0.64 15.35 95.94 0 0 2.95 3.24
16:31 2 32.9 25 66,335 0 0 0.89 6.18 85.93 0 0 3.51 3.86
16:30 2 33.1 25 66,368 0 0 0.81 13.13 89.48 0 0 2.97 3.26
16:29 2 33.3 25 66,374 0 0 0.67 13.07 81.4 0 0 2.97 3.27
16:28 2 33.5 25 66,384 0 0 0.63 13.55 85.36 0 0 2.97 3.27
16:27 2 33.7 25 66,392 0 0 0.64 14.08 83.41 0 0 2.99 3.29
16:26 2 34 24 66,398 0 0 0.58 24.64 55.91 0 0 3.55 3.9
16:25 2 34.2 24 66,435 0 0 0.81 8.24 74.47 0 0 3 3.3